Vancouver Int'l Airport, British Columbia

Past 24 Hour Conditions

This table is a summary of hourly weather conditions for the past 24 hours. This summary includes the following parameters: temperature, humidity, dew point, wind speed and direction, air pressure, visibility and/or wind chill and humidex.
Date / Time
(PDT)
Conditions Temp (°C) Humidity (%) Dew Point (°C) Wind (km/h) Pressure (kPa) Visibility (km)
23 April 2014
00:00 Mostly Cloudy 7   91 6 ENE 12 101.0 19
22 April 2014
23:00 Light Rain 8 89 6 ENE 14 101.0 16
22:00 Light Rain 9 81 6 NW 4 101.1 19
21:00 Mostly Cloudy 9 79 6 WSW 10 101.1 24
20:00 Partly Cloudy 10 62 3 S 14 101.0 32
19:00 Mostly Cloudy 11 59 3 SSE 18 101.0 32
18:00 Mainly Sunny 12 54 3 S 18 101.0 48
17:00 Mainly Sunny 12 59 4 S 22 gust 35 101.1 48
16:00 Mainly Sunny 14   47 3 SSE 22 gust 34 101.1 48
15:00 Mainly Sunny 14   46 2 S 14 101.1 48
14:00 Mainly Sunny 12 45 1 SW 12 101.1 48
13:00 Mainly Sunny 11 54 2 SW 11 101.1 32
12:00 Partly Cloudy 11 63 4 SW 11 101.1 32
11:00 Mainly Sunny 9 69 4 SSW 17 101.0 32
10:00 Partly Cloudy 10 71 5 SW 27 101.0 48
9:00 Partly Cloudy 9 82 6 WSW 23 gust 33 100.9 24
8:00 Partly Cloudy 8 84 6 WSW 25 100.9 24
7:00 Partly Cloudy 8 82 5 W 31 100.9 32
6:00 Partly Cloudy 8 85 6 W 29 100.9 24
5:00 Partly Cloudy 8 88 6 W 33 100.9 24
4:00 Mostly Cloudy 8 89 7 W 30 100.9 24
3:00 Partly Cloudy 8 90 7 W 30 100.9 19
2:00 Mostly Cloudy 9 92 7 W 26 100.9 24
1:00 Partly Cloudy 9 91 7 W 24 101.0 19
00:00 Partly Cloudy 9 92 8 W 22 101.0 19
N/A
Not available
 ↑ 
Highest temperature
 ↓ 
Lowest temperature

If you require additional historical weather information, please visit Climate Data Online.